Raccoon, Illinois
Current Conditions -  °F | °C
As of 3:35 PM on Friday 19 Dec 2014 (Local Time) from KENL Reporting Station
Overcast Overcast  
Wind Chill: 35°   Ceiling: 3700
Heat Index: 35°   Visibility: 10mi
Dew Point: 24°   Wind: 0mph
Humidity: 63%   Direction: NA
Pressure: 30.28"   Gusts: NA
Location:  38.5134°N, 89.1673°W
Report Text: KENL 192135Z AUTO 00000KT 10SM OVC037 02/M04 A3028 RMK AO2 T00191044
Loading
Personal Weather Stations






























Interactive Weather Map New forecast layout! Learn more

10-Day Weather Forecast

Advertisements
Track Severe Weather on mobile